createdAt,value
2019-05-25T00:02:14.160Z,12.20
2019-05-25T00:04:43.141Z,12.20
2019-05-25T00:07:11.944Z,12.10
2019-05-25T00:09:40.524Z,12.20
2019-05-25T00:12:09.235Z,12.10
2019-05-25T00:14:38.194Z,12.10
2019-05-25T00:17:07.056Z,12.10
2019-05-25T00:19:35.920Z,12.00
2019-05-25T00:22:04.547Z,11.90
2019-05-25T00:24:33.281Z,11.90
2019-05-25T00:27:01.957Z,11.90
2019-05-25T00:29:30.610Z,11.90
2019-05-25T00:31:59.212Z,11.80
2019-05-25T00:34:27.755Z,11.80
2019-05-25T00:36:56.331Z,11.80
2019-05-25T00:39:25.390Z,11.80
2019-05-25T00:41:54.002Z,11.70
2019-05-25T00:44:22.682Z,11.70
2019-05-25T00:46:51.288Z,11.70
2019-05-25T00:49:19.869Z,11.70
2019-05-25T00:51:48.458Z,11.70
2019-05-25T00:54:27.565Z,11.70
2019-05-25T00:56:47.726Z,11.70
2019-05-25T00:59:16.274Z,11.70
2019-05-25T01:01:44.849Z,11.70
2019-05-25T01:04:13.472Z,11.60
2019-05-25T01:06:42.083Z,11.50
2019-05-25T01:09:10.652Z,11.60
2019-05-25T01:11:39.176Z,11.50
2019-05-25T01:14:07.684Z,11.50
2019-05-25T01:16:36.311Z,11.50
2019-05-25T01:19:04.853Z,11.50
2019-05-25T01:21:33.399Z,11.50
2019-05-25T01:24:01.893Z,11.50
2019-05-25T01:26:30.432Z,11.50
2019-05-25T01:28:59.123Z,11.50
2019-05-25T01:31:27.802Z,11.50
2019-05-25T01:33:56.364Z,11.50
2019-05-25T01:36:24.930Z,11.50
2019-05-25T01:38:53.443Z,11.50
2019-05-25T01:41:21.936Z,11.50
2019-05-25T01:43:50.710Z,11.60
2019-05-25T01:46:19.219Z,11.60
2019-05-25T01:48:47.720Z,11.60
2019-05-25T01:51:16.196Z,11.60
2019-05-25T01:53:44.722Z,11.60
2019-05-25T01:56:13.273Z,11.60
2019-05-25T01:58:41.768Z,11.60
2019-05-25T02:01:10.243Z,11.60
2019-05-25T02:03:38.805Z,11.60
2019-05-25T02:06:07.362Z,11.60
2019-05-25T02:08:35.856Z,11.60
2019-05-25T02:11:04.370Z,11.70
2019-05-25T02:13:32.942Z,11.70
2019-05-25T02:16:01.457Z,11.80
2019-05-25T02:18:29.981Z,11.80
2019-05-25T02:20:58.481Z,11.80
2019-05-25T02:23:27.031Z,11.80
2019-05-25T02:25:55.538Z,11.80
2019-05-25T02:28:24.115Z,11.70
2019-05-25T02:30:52.641Z,11.60
2019-05-25T02:33:21.112Z,11.60
2019-05-25T02:35:49.595Z,11.50
2019-05-25T02:38:18.107Z,11.50
2019-05-25T02:40:46.598Z,11.50
2019-05-25T02:43:15.140Z,11.50
2019-05-25T02:45:43.699Z,11.40
2019-05-25T02:48:12.264Z,11.30
2019-05-25T02:50:40.870Z,11.30
2019-05-25T02:53:09.347Z,11.30
2019-05-25T02:55:37.819Z,11.30
2019-05-25T02:58:06.321Z,11.30
2019-05-25T03:00:35.084Z,11.20
2019-05-25T03:03:03.741Z,11.20
2019-05-25T03:05:32.260Z,11.20
2019-05-25T03:08:00.808Z,11.10
2019-05-25T03:10:29.394Z,11.10
2019-05-25T03:12:58.935Z,11.10
2019-05-25T03:15:27.419Z,11.10
2019-05-25T03:17:55.952Z,11.10
2019-05-25T03:20:24.433Z,11.20
2019-05-25T03:22:53.013Z,11.10
2019-05-25T03:25:21.616Z,11.20
2019-05-25T03:27:50.101Z,11.20
2019-05-25T03:30:21.864Z,11.10
2019-05-25T03:32:50.414Z,11.10
2019-05-25T03:35:18.904Z,11.20
2019-05-25T03:37:47.495Z,11.20
2019-05-25T03:40:15.992Z,11.20
2019-05-25T03:42:44.645Z,11.20
2019-05-25T03:45:14.749Z,11.20
2019-05-25T03:47:43.229Z,11.20
2019-05-25T03:50:11.760Z,11.30
2019-05-25T03:52:40.309Z,11.30
2019-05-25T03:55:08.826Z,11.20
2019-05-25T03:57:37.338Z,11.30
2019-05-25T04:00:06.806Z,11.20
2019-05-25T04:02:35.320Z,11.20
2019-05-25T04:05:07.261Z,11.30
2019-05-25T04:07:35.848Z,11.30
2019-05-25T04:10:05.668Z,11.30
2019-05-25T04:12:34.169Z,11.20
2019-05-25T04:15:02.732Z,11.20
2019-05-25T04:17:31.236Z,11.30
2019-05-25T04:19:59.745Z,11.30
2019-05-25T04:22:28.232Z,11.30
2019-05-25T04:24:56.876Z,11.30
2019-05-25T04:27:25.464Z,11.30
2019-05-25T04:29:53.931Z,11.30
2019-05-25T04:32:22.404Z,11.40
2019-05-25T04:34:50.985Z,11.40
2019-05-25T04:37:19.535Z,11.40
2019-05-25T04:39:48.048Z,11.40
2019-05-25T04:42:16.615Z,11.40
2019-05-25T04:44:45.193Z,11.50
2019-05-25T04:47:26.167Z,11.50
2019-05-25T04:49:43.939Z,11.60
2019-05-25T04:52:12.504Z,11.60
2019-05-25T04:54:41.053Z,11.60
2019-05-25T04:57:09.605Z,11.60
2019-05-25T04:59:38.158Z,11.60
2019-05-25T05:02:06.649Z,11.60
2019-05-25T05:04:35.218Z,11.70
2019-05-25T05:07:03.789Z,11.80
2019-05-25T05:09:32.328Z,12.00
2019-05-25T05:12:00.864Z,12.20
2019-05-25T05:14:29.426Z,12.30
2019-05-25T05:16:57.997Z,12.40
2019-05-25T05:19:26.584Z,12.60
2019-05-25T05:21:55.117Z,12.70
2019-05-25T05:24:23.600Z,13.00
2019-05-25T05:26:55.999Z,13.20
2019-05-25T05:29:22.331Z,13.30
2019-05-25T05:31:50.817Z,13.60
2019-05-25T05:34:19.330Z,13.80
2019-05-25T05:36:48.082Z,13.90
2019-05-25T05:39:16.767Z,14.10
2019-05-25T05:41:45.308Z,14.20
2019-05-25T05:44:13.781Z,14.30
2019-05-25T05:46:42.307Z,14.30
2019-05-25T05:49:10.871Z,14.30
2019-05-25T05:51:39.366Z,14.20
2019-05-25T05:54:07.954Z,14.20
2019-05-25T05:56:36.444Z,14.20
2019-05-25T05:59:04.969Z,14.30
2019-05-25T06:01:33.536Z,14.40
2019-05-25T06:04:02.222Z,14.50
2019-05-25T06:06:30.903Z,14.70
2019-05-25T06:08:59.463Z,14.70
2019-05-25T06:11:28.035Z,14.80
2019-05-25T06:13:56.640Z,14.90
2019-05-25T06:16:25.134Z,15.00
2019-05-25T06:18:53.636Z,15.00
2019-05-25T06:21:22.134Z,15.10
2019-05-25T06:23:50.619Z,15.10
2019-05-25T06:26:19.156Z,15.20
2019-05-25T06:28:47.700Z,15.20
2019-05-25T06:31:16.186Z,15.30
2019-05-25T06:33:44.768Z,15.40
2019-05-25T06:36:13.324Z,15.40
2019-05-25T06:38:41.884Z,15.50
2019-05-25T06:41:10.399Z,15.60
2019-05-25T06:43:38.884Z,15.60
2019-05-25T06:46:07.510Z,15.70
2019-05-25T06:48:36.150Z,15.70
2019-05-25T06:51:05.006Z,15.70
2019-05-25T06:53:33.493Z,15.70
2019-05-25T06:56:02.034Z,15.70
2019-05-25T06:58:30.748Z,15.80
2019-05-25T07:00:59.356Z,15.80
2019-05-25T07:03:27.871Z,15.90
2019-05-25T07:05:56.431Z,16.00
2019-05-25T07:08:25.031Z,16.20
2019-05-25T07:10:53.516Z,16.30
2019-05-25T07:13:22.023Z,16.40
2019-05-25T07:15:50.643Z,16.40
2019-05-25T07:18:19.189Z,16.60
2019-05-25T07:20:47.769Z,16.60
2019-05-25T07:23:16.303Z,16.70
2019-05-25T07:25:44.898Z,16.80
2019-05-25T07:28:13.404Z,16.90
2019-05-25T07:30:41.890Z,17.00
2019-05-25T07:33:10.394Z,17.00
2019-05-25T07:35:38.936Z,17.00
2019-05-25T07:38:07.534Z,17.10
2019-05-25T07:40:36.031Z,17.10
2019-05-25T07:43:04.974Z,17.00
2019-05-25T07:45:33.537Z,17.00
2019-05-25T07:48:02.101Z,17.00
2019-05-25T07:50:30.665Z,16.70
2019-05-25T07:52:59.381Z,16.60
2019-05-25T07:55:27.925Z,16.60
2019-05-25T07:57:56.484Z,16.60
2019-05-25T08:00:25.049Z,16.50
2019-05-25T08:02:53.770Z,16.50
2019-05-25T08:05:22.311Z,16.50
2019-05-25T08:07:50.810Z,16.40
2019-05-25T08:10:19.445Z,16.40
2019-05-25T08:12:47.966Z,16.40
2019-05-25T08:15:16.477Z,16.30
2019-05-25T08:17:44.960Z,16.30
2019-05-25T08:20:13.778Z,16.20
2019-05-25T08:22:42.418Z,16.20
2019-05-25T08:25:10.961Z,16.20
2019-05-25T08:27:39.429Z,16.20
2019-05-25T08:30:08.081Z,16.20
2019-05-25T08:32:36.709Z,16.30
2019-05-25T08:35:06.615Z,16.30
2019-05-25T08:37:35.177Z,16.40
2019-05-25T08:40:05.404Z,16.50
2019-05-25T08:42:34.010Z,16.60
2019-05-25T08:45:02.496Z,16.80
2019-05-25T08:47:31.087Z,17.00
2019-05-25T08:49:59.619Z,17.20
2019-05-25T08:52:28.093Z,17.30
2019-05-25T08:54:56.869Z,17.60
2019-05-25T08:57:25.489Z,17.80
2019-05-25T08:59:54.034Z,18.00
2019-05-25T09:02:22.518Z,18.20
2019-05-25T09:04:51.044Z,18.30
2019-05-25T09:07:19.516Z,18.30
2019-05-25T09:09:48.022Z,18.20
2019-05-25T09:12:16.525Z,18.10
2019-05-25T09:14:45.047Z,18.10
2019-05-25T09:17:13.631Z,18.10
2019-05-25T09:19:42.164Z,18.20
2019-05-25T09:22:10.744Z,18.20
2019-05-25T09:24:39.255Z,18.10
2019-05-25T09:27:07.804Z,17.90
2019-05-25T09:29:36.331Z,17.80
2019-05-25T09:32:07.011Z,17.70
2019-05-25T09:34:35.166Z,17.60
2019-05-25T09:37:03.647Z,17.50
2019-05-25T09:39:32.129Z,17.60
2019-05-25T09:42:00.713Z,17.60
2019-05-25T09:44:29.260Z,17.60
2019-05-25T09:46:57.769Z,17.60
2019-05-25T09:49:26.278Z,17.60
2019-05-25T09:51:54.824Z,17.70
2019-05-25T09:54:23.432Z,17.70
2019-05-25T09:56:52.020Z,17.70
2019-05-25T09:59:20.758Z,17.70
2019-05-25T10:01:49.469Z,17.80
2019-05-25T10:04:18.033Z,17.80
2019-05-25T10:06:46.804Z,17.90
2019-05-25T10:09:15.475Z,17.90
2019-05-25T10:11:44.106Z,18.00
2019-05-25T10:14:12.710Z,18.20
2019-05-25T10:16:41.290Z,18.40
2019-05-25T10:19:09.789Z,18.60
2019-05-25T10:21:38.409Z,18.90
2019-05-25T10:24:07.116Z,19.10
2019-05-25T10:26:35.642Z,19.20
2019-05-25T10:29:04.120Z,19.30
2019-05-25T10:31:32.673Z,19.50
2019-05-25T10:34:01.230Z,19.90
2019-05-25T10:36:29.933Z,20.20
2019-05-25T10:38:58.657Z,20.40
2019-05-25T10:41:27.265Z,20.60
2019-05-25T10:43:55.796Z,20.90
2019-05-25T10:46:24.464Z,21.00
2019-05-25T10:48:53.064Z,21.10
2019-05-25T10:51:21.535Z,21.20
2019-05-25T10:53:50.081Z,21.30
2019-05-25T10:56:18.600Z,21.40
2019-05-25T10:58:47.209Z,21.40
2019-05-25T11:01:15.856Z,21.60
2019-05-25T11:03:44.487Z,21.70
2019-05-25T11:06:12.967Z,21.80
2019-05-25T11:08:41.898Z,22.00
2019-05-25T11:11:10.460Z,22.30
2019-05-25T11:13:38.949Z,22.40
2019-05-25T11:16:07.636Z,22.20
2019-05-25T11:18:36.229Z,22.00
2019-05-25T11:21:04.802Z,21.90
2019-05-25T11:23:33.354Z,21.70
2019-05-25T11:26:01.920Z,21.50
2019-05-25T11:28:30.582Z,21.60
2019-05-25T11:30:59.119Z,21.80
2019-05-25T11:33:27.887Z,21.90
2019-05-25T11:35:56.573Z,21.90
2019-05-25T11:38:25.168Z,21.90
2019-05-25T11:40:53.764Z,21.90
2019-05-25T11:43:22.339Z,21.90
2019-05-25T11:45:50.824Z,21.90
2019-05-25T11:48:19.345Z,21.80
2019-05-25T11:50:47.885Z,21.70
2019-05-25T11:53:16.561Z,21.80
2019-05-25T11:55:45.107Z,22.10
2019-05-25T11:58:13.670Z,22.30
2019-05-25T12:00:42.227Z,22.40
2019-05-25T12:03:10.789Z,22.50
2019-05-25T12:05:39.318Z,22.50
2019-05-25T12:08:07.945Z,22.80
2019-05-25T12:10:36.445Z,23.10
2019-05-25T12:13:05.033Z,23.60
2019-05-25T12:15:33.605Z,24.10
2019-05-25T12:18:02.240Z,24.70
2019-05-25T12:20:30.865Z,25.10
2019-05-25T12:22:59.523Z,25.20
2019-05-25T12:25:28.149Z,25.40
2019-05-25T12:27:56.656Z,25.40
2019-05-25T12:30:39.751Z,25.50
2019-05-25T12:32:56.244Z,25.40
2019-05-25T12:35:24.843Z,25.20
2019-05-25T12:37:53.470Z,25.00
2019-05-25T12:40:22.003Z,25.10
2019-05-25T12:42:50.515Z,25.10
2019-05-25T12:45:19.148Z,25.10
2019-05-25T12:47:47.641Z,25.20
2019-05-25T12:50:16.115Z,25.50
2019-05-25T12:52:44.629Z,25.70
2019-05-25T12:55:13.201Z,26.00
2019-05-25T12:57:41.749Z,26.10
2019-05-25T13:00:16.043Z,25.80
2019-05-25T13:02:41.051Z,25.50
2019-05-25T13:05:09.643Z,25.30
2019-05-25T13:07:38.195Z,25.00
2019-05-25T13:10:07.389Z,24.60
2019-05-25T13:12:36.000Z,24.20
2019-05-25T13:15:08.516Z,23.90
2019-05-25T13:17:37.022Z,23.70
2019-05-25T13:20:06.330Z,23.60
2019-05-25T13:22:34.874Z,23.60
2019-05-25T13:25:04.675Z,23.60
2019-05-25T13:27:33.285Z,23.70
2019-05-25T13:30:03.251Z,23.60
2019-05-25T13:32:32.155Z,23.50
2019-05-25T13:35:00.783Z,23.30
2019-05-25T13:37:29.329Z,23.00
2019-05-25T13:39:57.947Z,22.80
2019-05-25T13:42:26.575Z,22.60
2019-05-25T13:44:55.158Z,22.60
2019-05-25T13:47:23.695Z,22.50
2019-05-25T13:49:52.192Z,22.40
2019-05-25T13:52:20.785Z,22.30
2019-05-25T13:54:49.464Z,22.20
2019-05-25T13:57:18.070Z,22.20
2019-05-25T13:59:46.629Z,22.20
2019-05-25T14:02:15.223Z,22.30
2019-05-25T14:04:43.776Z,22.30
2019-05-25T14:07:12.369Z,22.50
2019-05-25T14:09:41.002Z,22.80
2019-05-25T14:12:09.522Z,23.30
2019-05-25T14:14:38.011Z,23.60
2019-05-25T14:17:06.556Z,23.70
2019-05-25T14:19:35.151Z,23.90
2019-05-25T14:22:03.726Z,24.20
2019-05-25T14:24:32.306Z,24.70
2019-05-25T14:27:00.812Z,25.10
2019-05-25T14:29:29.502Z,25.20
2019-05-25T14:31:58.099Z,25.10
2019-05-25T14:34:26.680Z,25.20
2019-05-25T14:36:55.284Z,25.30
2019-05-25T14:39:23.808Z,25.30
2019-05-25T14:41:52.363Z,25.30
2019-05-25T14:44:20.939Z,25.20
2019-05-25T14:46:49.477Z,24.90
2019-05-25T14:49:18.058Z,24.50
2019-05-25T14:51:48.270Z,24.30
2019-05-25T14:54:16.873Z,24.40
2019-05-25T14:56:45.453Z,24.50
2019-05-25T14:59:13.964Z,24.40
2019-05-25T15:01:42.608Z,24.40
2019-05-25T15:04:11.188Z,24.50
2019-05-25T15:06:39.874Z,25.00
2019-05-25T15:09:08.510Z,25.60
2019-05-25T15:11:37.047Z,26.10
2019-05-25T15:14:05.558Z,26.70
2019-05-25T15:16:34.149Z,27.40
2019-05-25T15:19:02.764Z,27.30
2019-05-25T15:21:31.306Z,27.70
2019-05-25T15:23:59.954Z,28.60
2019-05-25T15:26:28.572Z,29.00
2019-05-25T15:28:57.129Z,28.90
2019-05-25T15:31:25.707Z,29.60
2019-05-25T15:33:54.290Z,30.10
2019-05-25T15:36:22.809Z,29.40
2019-05-25T15:38:51.349Z,29.80
2019-05-25T15:41:19.933Z,30.30
2019-05-25T15:43:48.454Z,30.80
2019-05-25T15:46:17.003Z,31.20
2019-05-25T15:48:45.556Z,31.70
2019-05-25T15:51:14.128Z,31.40
2019-05-25T15:53:42.653Z,31.70
2019-05-25T15:56:11.182Z,32.20
2019-05-25T15:58:39.769Z,32.20
2019-05-25T16:01:08.436Z,32.60
2019-05-25T16:03:36.979Z,33.00
2019-05-25T16:06:05.517Z,33.10
2019-05-25T16:08:34.065Z,33.30
2019-05-25T16:11:02.644Z,33.30
2019-05-25T16:13:31.215Z,33.30
2019-05-25T16:15:59.923Z,33.10
2019-05-25T16:18:28.531Z,33.20
2019-05-25T16:20:57.099Z,33.00
2019-05-25T16:23:25.700Z,33.00
2019-05-25T16:25:54.184Z,33.00
2019-05-25T16:28:22.841Z,32.90
2019-05-25T16:30:51.465Z,32.90
2019-05-25T16:33:20.000Z,32.90
2019-05-25T16:35:48.605Z,32.40
2019-05-25T16:38:17.246Z,31.20
2019-05-25T16:40:45.764Z,30.20
2019-05-25T16:43:14.388Z,29.30
2019-05-25T16:45:42.961Z,29.80
2019-05-25T16:48:11.814Z,30.20
2019-05-25T16:50:40.449Z,30.40
2019-05-25T16:53:08.976Z,30.30
2019-05-25T16:55:37.538Z,29.20
2019-05-25T16:58:06.118Z,27.90
2019-05-25T17:00:34.604Z,26.80
2019-05-25T17:03:03.249Z,26.10
2019-05-25T17:05:31.838Z,25.50
2019-05-25T17:08:00.350Z,24.90
2019-05-25T17:10:28.989Z,24.30
2019-05-25T17:12:57.580Z,23.80
2019-05-25T17:15:26.152Z,23.40
2019-05-25T17:17:54.723Z,23.00
2019-05-25T17:20:23.248Z,22.50
2019-05-25T17:22:51.809Z,22.20
2019-05-25T17:25:20.369Z,21.90
2019-05-25T17:27:48.900Z,21.70
2019-05-25T17:30:19.047Z,21.50
2019-05-25T17:32:47.663Z,21.40
2019-05-25T17:35:16.150Z,21.20
2019-05-25T17:37:44.848Z,21.10
2019-05-25T17:40:13.378Z,21.00
2019-05-25T17:42:41.895Z,20.90
2019-05-25T17:45:10.706Z,20.80
2019-05-25T17:47:39.265Z,20.80
2019-05-25T17:50:08.069Z,20.70
2019-05-25T17:52:36.655Z,20.70
2019-05-25T17:55:08.019Z,20.50
2019-05-25T17:57:36.526Z,20.40
2019-05-25T18:00:06.796Z,20.20
2019-05-25T18:02:35.434Z,20.10
2019-05-25T18:05:06.085Z,20.10
2019-05-25T18:07:34.635Z,20.10
2019-05-25T18:10:04.614Z,20.10
2019-05-25T18:12:33.155Z,20.20
2019-05-25T18:15:01.701Z,20.10
2019-05-25T18:17:30.270Z,20.00
2019-05-25T18:19:58.836Z,19.90
2019-05-25T18:22:27.429Z,19.70
2019-05-25T18:24:55.955Z,19.60
2019-05-25T18:27:25.359Z,19.60
2019-05-25T18:29:53.876Z,19.60
2019-05-25T18:32:22.548Z,19.50
2019-05-25T18:34:51.129Z,19.50
2019-05-25T18:37:19.745Z,19.50
2019-05-25T18:39:48.270Z,19.50
2019-05-25T18:42:16.786Z,19.40
2019-05-25T18:44:45.291Z,19.30
2019-05-25T18:47:13.809Z,19.30
2019-05-25T18:49:42.478Z,19.30
2019-05-25T18:52:11.064Z,19.20
2019-05-25T18:54:39.932Z,19.10
2019-05-25T18:57:09.560Z,19.00
2019-05-25T18:59:38.401Z,19.00
2019-05-25T19:02:07.019Z,19.00
2019-05-25T19:04:44.770Z,18.90
2019-05-25T19:07:05.742Z,18.90
2019-05-25T19:09:34.353Z,18.80
2019-05-25T19:12:03.168Z,18.70
2019-05-25T19:14:34.194Z,18.60
2019-05-25T19:17:02.805Z,18.50
2019-05-25T19:19:31.380Z,18.50
2019-05-25T19:22:00.068Z,18.40
2019-05-25T19:24:28.641Z,18.30
2019-05-25T19:26:59.034Z,18.10
2019-05-25T19:29:27.628Z,18.00
2019-05-25T19:31:56.190Z,17.90
2019-05-25T19:34:26.346Z,17.90
2019-05-25T19:37:03.324Z,17.70
2019-05-25T19:39:28.103Z,17.70
2019-05-25T19:41:56.698Z,17.60
2019-05-25T19:44:25.330Z,17.50
2019-05-25T19:46:53.909Z,17.50
2019-05-25T19:49:22.568Z,17.40
2019-05-25T19:51:51.168Z,17.30
2019-05-25T19:54:19.834Z,17.20
2019-05-25T19:56:48.434Z,17.20
2019-05-25T19:59:17.016Z,17.10
2019-05-25T20:01:46.066Z,17.10
2019-05-25T20:04:14.720Z,17.10
2019-05-25T20:06:43.587Z,17.10
2019-05-25T20:09:12.180Z,17.10
2019-05-25T20:11:40.785Z,17.10
2019-05-25T20:14:09.543Z,17.10
2019-05-25T20:16:38.148Z,17.10
2019-05-25T20:19:06.738Z,17.10
2019-05-25T20:21:40.092Z,17.10
2019-05-25T20:24:08.856Z,17.10
2019-05-25T20:26:39.390Z,17.00
2019-05-25T20:29:12.545Z,17.00
2019-05-25T20:31:47.444Z,17.00
2019-05-25T20:34:26.959Z,16.90
2019-05-25T20:37:16.028Z,16.90
2019-05-25T20:39:44.860Z,16.80
2019-05-25T20:42:15.135Z,16.80
2019-05-25T20:44:43.992Z,16.70
2019-05-25T20:47:12.547Z,16.70
2019-05-25T20:49:41.039Z,16.70
2019-05-25T20:52:09.542Z,16.70
2019-05-25T20:54:38.556Z,16.70
2019-05-25T20:57:07.094Z,16.70
2019-05-25T20:59:53.816Z,16.70
2019-05-25T21:02:13.731Z,16.70
2019-05-25T21:04:42.322Z,16.80
2019-05-25T21:07:10.853Z,16.90
2019-05-25T21:09:39.485Z,16.90
2019-05-25T21:12:08.109Z,17.00
2019-05-25T21:14:36.743Z,17.00
2019-05-25T21:17:05.327Z,17.00
2019-05-25T21:19:34.255Z,16.90
2019-05-25T21:22:02.830Z,16.90
2019-05-25T21:24:31.383Z,16.90
2019-05-25T21:26:59.945Z,16.90
2019-05-25T21:29:28.443Z,16.90
2019-05-25T21:31:57.032Z,17.00
2019-05-25T21:34:25.599Z,17.00
2019-05-25T21:36:54.230Z,17.00
2019-05-25T21:39:22.769Z,16.90
2019-05-25T21:41:51.669Z,16.90
2019-05-25T21:44:24.072Z,16.80
2019-05-25T21:46:57.412Z,16.70
2019-05-25T21:49:25.945Z,16.60
2019-05-25T21:51:54.532Z,16.50
2019-05-25T21:54:23.096Z,16.40
2019-05-25T21:56:51.646Z,16.30
2019-05-25T21:59:20.262Z,16.20
2019-05-25T22:01:48.933Z,16.10
2019-05-25T22:04:17.501Z,16.00
2019-05-25T22:06:46.123Z,15.90
2019-05-25T22:09:14.684Z,15.90
2019-05-25T22:11:43.339Z,15.80
2019-05-25T22:14:11.822Z,15.80
2019-05-25T22:16:40.328Z,15.70
2019-05-25T22:19:08.847Z,15.70
2019-05-25T22:21:37.439Z,15.60
2019-05-25T22:24:06.029Z,15.60
2019-05-25T22:26:34.636Z,15.60
2019-05-25T22:29:03.167Z,15.50
2019-05-25T22:31:31.776Z,15.40
2019-05-25T22:34:00.314Z,15.40
2019-05-25T22:36:39.914Z,15.30
2019-05-25T22:38:59.037Z,15.20
2019-05-25T22:41:27.647Z,15.10
2019-05-25T22:43:56.201Z,15.10
2019-05-25T22:46:24.714Z,15.00
2019-05-25T22:48:53.289Z,15.00
2019-05-25T22:51:21.821Z,14.90
2019-05-25T22:53:50.434Z,14.90
2019-05-25T22:56:19.051Z,14.90
2019-05-25T22:58:47.620Z,14.90
2019-05-25T23:01:16.132Z,14.80
2019-05-25T23:03:44.641Z,14.80
2019-05-25T23:06:13.146Z,14.80
2019-05-25T23:08:41.668Z,14.80
2019-05-25T23:11:10.224Z,14.70
2019-05-25T23:13:38.736Z,14.60
2019-05-25T23:16:08.879Z,14.60
2019-05-25T23:18:37.405Z,14.50
2019-05-25T23:21:05.920Z,14.40
2019-05-25T23:23:34.451Z,14.30
2019-05-25T23:26:03.002Z,14.20
2019-05-25T23:28:31.552Z,14.20
2019-05-25T23:31:00.237Z,14.20
2019-05-25T23:33:28.878Z,14.10
2019-05-25T23:35:57.461Z,14.00
2019-05-25T23:38:26.021Z,13.90
2019-05-25T23:40:54.533Z,13.90
2019-05-25T23:43:23.126Z,13.80
2019-05-25T23:45:51.667Z,13.80
2019-05-25T23:48:20.186Z,13.80
2019-05-25T23:50:49.169Z,13.70
2019-05-25T23:53:17.760Z,13.70
2019-05-25T23:55:46.377Z,13.70
2019-05-25T23:58:14.948Z,13.60
